Time;durP1;ratioP1;P1;durP2;ratioP2;P2;SDS_P1;SDS_P2;PMS_P1;PMS_P2;Temp;Humidity;BMP_temperature;BMP_pressure;BME280_temperature;BME280_humidity;BME280_pressure;Samples;Min_cycle;Max_cycle;Signal;HPM_P1;HPM_P2
2022/06/25 00:01:24;;;;;;;12.32;6.63;;;;;;;19.85;64.75;99665.72;5015534;28;20030;-66
2022/06/25 00:03:50;;;;;;;14.25;7.65;;;;;;;20.09;64.70;99708.94;5015395;28;20026;-66
2022/06/25 00:06:17;;;;;;;10.80;6.90;;;;;;;20.04;64.93;99707.50;5015245;28;20034;-66
2022/06/25 00:08:44;;;;;;;12.38;7.85;;;;;;;19.99;65.29;99700.78;5011146;28;20030;-66
2022/06/25 00:12:31;;;;;;;9.38;7.15;;;;;;;19.97;65.34;99717.56;5014748;28;20042;-67
2022/06/25 00:13:56;;;;;;;23.30;8.00;;;;;;;19.87;65.03;99704.13;5015221;28;20026;-67
2022/06/25 00:16:22;;;;;;;17.33;7.50;;;;;;;19.90;65.32;99717.09;5015167;28;20026;-67
2022/06/25 00:18:48;;;;;;;20.27;7.80;;;;;;;19.87;65.12;99713.81;5015039;28;20029;-67
2022/06/25 00:21:13;;;;;;;15.30;7.60;;;;;;;19.85;65.63;99719.13;5015216;28;20037;-67
2022/06/25 00:23:39;;;;;;;11.68;7.00;;;;;;;19.61;66.06;99688.09;5015020;28;20018;-67
2022/06/25 00:26:04;;;;;;;9.98;6.88;;;;;;;19.79;65.95;99725.59;5014864;28;20438;-66
2022/06/25 00:28:30;;;;;;;10.23;7.47;;;;;;;19.74;66.18;99721.53;5014937;28;20042;-66
2022/06/25 00:30:55;;;;;;;9.57;7.00;;;;;;;19.75;66.04;99734.59;5014830;28;20053;-66
2022/06/25 00:33:21;;;;;;;12.73;7.53;;;;;;;19.50;65.96;99698.41;5014577;28;20022;-66
2022/06/25 00:35:46;;;;;;;18.50;7.38;;;;;;;19.66;66.44;99729.88;5013381;28;20507;-66
2022/06/25 00:38:12;;;;;;;11.15;7.40;;;;;;;19.64;66.66;99731.75;5014274;28;20044;-65
2022/06/25 00:40:37;;;;;;;15.93;6.85;;;;;;;19.63;66.84;99740.56;5014832;28;20018;-66
2022/06/25 00:43:03;;;;;;;14.68;7.60;;;;;;;19.60;66.55;99743.38;5014720;28;20030;-66
2022/06/25 00:45:29;;;;;;;22.50;8.45;;;;;;;19.60;67.30;99752.09;5014398;28;20037;-67
2022/06/25 00:47:54;;;;;;;18.40;7.55;;;;;;;19.61;67.06;99752.94;5014465;28;20045;-66
2022/06/25 00:50:20;;;;;;;18.52;7.32;;;;;;;19.58;66.93;99763.63;5014738;28;20753;-66
2022/06/25 00:52:52;;;;;;;16.77;7.93;;;;;;;19.26;66.71;99709.38;5014592;28;20080;-66
2022/06/25 00:55:20;;;;;;;11.70;7.85;;;;;;;19.24;66.52;99708.63;5010637;28;20419;-65
2022/06/25 00:57:49;;;;;;;18.95;8.07;;;;;;;19.20;67.57;99706.28;5014353;28;20030;-65
2022/06/25 01:00:17;;;;;;;13.95;7.97;;;;;;;19.49;67.10;99755.31;5014400;28;20075;-66
2022/06/25 01:02:44;;;;;;;13.68;7.20;;;;;;;19.48;67.46;99765.91;5014284;28;20057;-66
2022/06/25 01:05:15;;;;;;;13.77;7.55;;;;;;;19.19;67.84;99710.66;5014030;28;20050;-66
2022/06/25 01:07:45;;;;;;;15.38;7.18;;;;;;;19.42;68.03;99753.97;5014170;28;20034;-66
2022/06/25 01:10:13;;;;;;;12.82;7.72;;;;;;;19.46;67.78;99771.25;5013958;28;20030;-66
2022/06/25 01:12:39;;;;;;;14.75;8.13;;;;;;;19.46;68.29;99770.44;5014105;28;20084;-66
2022/06/25 01:15:16;;;;;;;13.48;7.70;;;;;;;19.16;67.38;99725.75;5014064;28;20133;-67
2022/06/25 01:17:49;;;;;;;15.05;7.60;;;;;;;19.42;68.24;99782.88;5014085;28;20030;-67
2022/06/25 01:20:18;;;;;;;11.07;7.68;;;;;;;19.42;67.33;99785.50;5014091;28;20034;-67
2022/06/25 01:22:44;;;;;;;14.82;7.47;;;;;;;19.37;68.02;99777.06;5012785;28;20124;-67
2022/06/25 01:25:11;;;;;;;11.23;7.85;;;;;;;19.41;67.84;99788.22;5013709;28;20117;-66
2022/06/25 01:27:37;;;;;;;19.30;9.23;;;;;;;19.43;68.06;99791.63;5013790;28;20054;-67
2022/06/25 01:30:04;;;;;;;17.75;7.50;;;;;;;19.24;68.12;99761.16;5014075;28;20034;-65
2022/06/25 01:32:30;;;;;;;16.88;7.80;;;;;;;19.39;67.87;99788.31;5013889;28;20084;-65
2022/06/25 01:34:55;;;;;;;17.50;7.85;;;;;;;19.41;68.73;99788.22;5013994;28;20026;-66
2022/06/25 01:37:21;;;;;;;10.98;6.78;;;;;;;19.40;68.56;99794.44;5013614;28;20464;-65
2022/06/25 01:39:55;;;;;;;18.20;7.63;;;;;;;19.35;68.52;99786.78;5013452;28;20840;-65
2022/06/25 01:43:03;;;;;;;16.92;7.43;;;;;;;19.39;68.59;99796.19;5013853;28;20127;-65
2022/06/25 01:45:11;;;;;;;14.80;7.45;;;;;;;19.27;68.21;99778.53;5008448;28;20125;-65
2022/06/25 01:47:37;;;;;;;16.27;7.03;;;;;;;19.33;68.72;99791.28;5012955;28;20064;-65
2022/06/25 01:50:04;;;;;;;15.73;7.22;;;;;;;19.38;69.26;99796.28;5012195;28;20021;-65
2022/06/25 01:52:30;;;;;;;9.75;6.82;;;;;;;19.37;69.06;99795.44;5013480;28;20505;-65
2022/06/25 01:54:55;;;;;;;14.77;7.40;;;;;;;19.37;69.93;99799.81;5007971;28;20022;-66
2022/06/25 01:57:21;;;;;;;14.65;7.60;;;;;;;19.40;69.41;99795.25;5013171;28;20029;-66
2022/06/25 01:59:47;;;;;;;12.15;7.05;;;;;;;19.47;68.77;99793.97;5013377;28;20026;-66
2022/06/25 02:02:13;;;;;;;8.98;7.05;;;;;;;19.48;69.26;99800.06;5012878;28;20026;-65
2022/06/25 02:04:39;;;;;;;13.10;7.97;;;;;;;19.54;69.02;99798.88;5013044;28;20092;-66
2022/06/25 02:07:04;;;;;;;9.50;6.50;;;;;;;19.55;69.10;99795.31;5013159;28;20495;-66
2022/06/25 02:09:30;;;;;;;11.27;7.32;;;;;;;19.54;69.46;99796.25;5012945;28;20033;-66
2022/06/25 02:11:55;;;;;;;12.77;7.47;;;;;;;19.58;69.42;99792.53;5013179;28;20040;-67
2022/06/25 02:14:21;;;;;;;15.15;7.05;;;;;;;19.61;68.98;99793.19;5013301;28;20032;-67
2022/06/25 02:16:47;;;;;;;17.88;7.50;;;;;;;19.65;69.19;99796.50;5012820;28;20033;-67
2022/06/25 02:19:12;;;;;;;15.30;7.63;;;;;;;19.67;69.30;99797.25;5012908;28;20109;-68
2022/06/25 02:21:38;;;;;;;14.25;7.20;;;;;;;19.73;68.90;99801.31;5012960;28;20034;-65
2022/06/25 02:24:04;;;;;;;12.23;6.93;;;;;;;19.72;68.69;99794.38;5012825;28;20045;-65
2022/06/25 02:26:29;;;;;;;11.15;7.25;;;;;;;19.81;68.46;99801.75;5012911;28;20400;-65
2022/06/25 02:28:55;;;;;;;13.00;7.20;;;;;;;19.86;68.38;99802.31;5012593;28;20400;-65
2022/06/25 02:31:20;;;;;;;18.75;7.43;;;;;;;19.95;68.54;99808.81;5012589;28;20080;-66
2022/06/25 02:33:46;;;;;;;13.15;6.90;;;;;;;20.00;68.24;99806.78;5011288;28;20034;-67
2022/06/25 02:36:11;;;;;;;11.35;7.15;;;;;;;20.03;68.04;99808.38;5012661;28;20025;-67
2022/06/25 02:38:37;;;;;;;14.73;7.05;;;;;;;20.13;67.93;99805.09;5012468;28;20042;-66
2022/06/25 02:41:02;;;;;;;10.30;7.25;;;;;;;20.18;68.08;99810.13;5012553;28;20053;-66
2022/06/25 02:43:28;;;;;;;14.27;6.60;;;;;;;20.18;67.75;99805.69;5012600;28;20025;-66
2022/06/25 02:45:54;;;;;;;14.85;7.13;;;;;;;20.23;67.58;99804.56;5011978;28;20391;-65
2022/06/25 02:48:19;;;;;;;13.00;7.30;;;;;;;20.26;67.52;99807.84;5012133;28;20022;-66
2022/06/25 02:50:45;;;;;;;16.23;7.03;;;;;;;20.28;67.79;99806.00;5011072;28;20026;-66
2022/06/25 02:53:10;;;;;;;16.63;6.90;;;;;;;20.29;67.85;99801.56;5012246;28;20022;-65
2022/06/25 03:01:05;;;;;;;16.08;6.65;;;;;;;20.41;67.60;99806.09;5012209;28;20103;-66
2022/06/25 03:03:31;;;;;;;13.82;6.50;;;;;;;20.48;67.61;99814.47;5012230;28;20530;-67
2022/06/25 03:05:56;;;;;;;12.40;6.13;;;;;;;20.51;67.16;99822.19;5012090;28;20049;-67
2022/06/25 03:08:22;;;;;;;12.88;6.35;;;;;;;20.58;66.76;99817.38;5011062;28;20041;-66
2022/06/25 03:10:48;;;;;;;13.88;5.63;;;;;;;20.65;66.83;99824.81;5012276;28;20030;-67
2022/06/25 03:13:13;;;;;;;10.25;5.80;;;;;;;20.66;66.19;99823.88;5012263;28;20026;-67
2022/06/25 03:15:39;;;;;;;9.15;5.70;;;;;;;20.74;66.41;99827.84;5012048;28;20395;-67
2022/06/25 03:18:05;;;;;;;8.95;5.95;;;;;;;20.75;65.69;99819.00;5012158;28;20483;-67
2022/06/25 03:20:31;;;;;;;12.45;5.80;;;;;;;20.88;66.41;99826.97;5012341;28;20040;-66
2022/06/25 03:22:57;;;;;;;13.63;6.13;;;;;;;21.04;65.37;99838.25;5012120;28;20022;-66
2022/06/25 03:25:23;;;;;;;13.27;6.35;;;;;;;21.17;64.78;99833.91;5011921;28;20023;-67
2022/06/25 03:27:48;;;;;;;12.20;5.97;;;;;;;21.23;64.75;99834.47;5012120;28;20033;-66
2022/06/25 03:30:15;;;;;;;6.63;5.32;;;;;;;21.26;64.66;99829.00;5011963;28;20026;-65
2022/06/25 03:32:40;;;;;;;7.65;5.45;;;;;;;21.32;64.57;99844.41;5012215;28;20513;-65
2022/06/25 03:35:06;;;;;;;9.50;5.78;;;;;;;21.39;64.48;99850.97;5012084;28;20026;-66
2022/06/25 03:37:32;;;;;;;6.78;5.13;;;;;;;21.37;64.51;99847.59;5011809;28;20026;-67
2022/06/25 03:39:59;;;;;;;9.10;5.47;;;;;;;21.46;64.17;99849.66;5011997;28;20068;-67
2022/06/25 03:42:25;;;;;;;10.45;5.38;;;;;;;21.44;63.68;99838.34;5011988;28;20037;-66
2022/06/25 03:44:50;;;;;;;7.75;5.40;;;;;;;21.55;64.03;99842.97;5012113;28;20034;-67
2022/06/25 03:47:16;;;;;;;9.45;4.95;;;;;;;21.60;62.97;99845.31;5011310;28;20486;-67
2022/06/25 03:49:42;;;;;;;8.07;5.15;;;;;;;21.62;63.06;99848.69;5010537;28;20114;-67
2022/06/25 03:52:07;;;;;;;10.63;5.35;;;;;;;21.74;63.43;99857.59;5011975;28;20033;-67
2022/06/25 03:54:33;;;;;;;5.97;5.20;;;;;;;21.81;63.39;99856.25;5011449;28;20054;-66
2022/06/25 03:56:58;;;;;;;7.38;4.85;;;;;;;21.85;63.58;99840.13;5011990;28;20022;-67
2022/06/25 03:59:24;;;;;;;6.88;5.13;;;;;;;21.98;63.21;99852.50;5011668;28;20108;-67
2022/06/25 04:01:50;;;;;;;5.57;5.05;;;;;;;21.97;62.80;99845.53;5011540;28;20615;-67
2022/06/25 04:04:16;;;;;;;5.43;4.47;;;;;;;22.01;62.27;99847.84;5010912;28;20089;-66
2022/06/25 04:06:41;;;;;;;6.18;4.43;;;;;;;22.14;61.92;99850.50;5011603;28;20389;-66
2022/06/25 04:09:07;;;;;;;5.72;4.43;;;;;;;22.26;61.80;99856.78;5010729;28;20026;-66
2022/06/25 04:11:32;;;;;;;9.65;4.97;;;;;;;22.32;62.25;99860.78;5014521;28;20026;-66
2022/06/25 04:13:58;;;;;;;7.95;4.75;;;;;;;22.39;60.38;99862.09;5015278;28;20034;-66
2022/06/25 04:16:24;;;;;;;9.05;4.32;;;;;;;22.52;60.84;99870.03;5015139;28;20507;-67
2022/06/25 04:18:50;;;;;;;10.32;4.85;;;;;;;22.53;61.51;99874.34;5015043;28;20030;-67
2022/06/25 04:21:15;;;;;;;8.23;4.78;;;;;;;22.57;61.54;99874.03;5015121;28;20045;-66
2022/06/25 04:23:41;;;;;;;7.15;4.95;;;;;;;22.57;60.90;99862.63;5015210;28;20553;-66
2022/06/25 04:26:07;;;;;;;5.00;4.25;;;;;;;22.67;60.76;99882.16;5014580;28;20065;-66
2022/06/25 04:31:16;;;;;;;8.40;4.38;;;;;;;22.76;60.24;99867.50;5014886;28;20034;-65
2022/06/25 04:33:42;;;;;;;4.45;3.92;;;;;;;22.89;60.11;99875.41;5015110;28;20172;-65
2022/06/25 04:36:07;;;;;;;6.50;4.53;;;;;;;22.72;59.06;99844.88;5014713;28;20104;-65
2022/06/25 04:38:33;;;;;;;8.45;4.28;;;;;;;22.99;58.59;99872.94;5014501;28;20030;-66
2022/06/25 04:40:59;;;;;;;8.73;4.78;;;;;;;23.05;58.53;99872.53;5014910;28;20058;-66
2022/06/25 04:43:24;;;;;;;5.57;4.32;;;;;;;23.15;58.99;99883.31;5014656;28;20109;-65
2022/06/25 04:45:51;;;;;;;4.75;4.25;;;;;;;23.19;58.54;99874.22;5008321;28;20638;-65
2022/06/25 04:48:16;;;;;;;10.00;4.72;;;;;;;23.27;59.09;99885.94;4996362;28;20041;-66
2022/06/25 04:50:43;;;;;;;5.22;4.15;;;;;;;23.38;58.53;99884.31;5014340;28;20026;-66
2022/06/25 04:53:09;;;;;;;10.05;4.68;;;;;;;23.34;56.67;99877.56;5014531;28;20045;-66
2022/06/25 04:55:35;;;;;;;4.68;4.28;;;;;;;23.48;57.54;99882.69;5008839;28;20069;-66
2022/06/25 04:58:00;;;;;;;5.90;4.88;;;;;;;23.49;56.02;99881.75;5014283;28;20022;-65
2022/06/25 05:00:26;;;;;;;4.57;3.92;;;;;;;23.64;56.35;99884.22;5004664;28;20080;-65
2022/06/25 05:02:52;;;;;;;4.85;4.35;;;;;;;23.60;56.08;99875.66;5013816;28;20038;-65
2022/06/25 05:05:17;;;;;;;5.20;4.40;;;;;;;23.75;56.17;99895.69;5013882;28;20046;-65
2022/06/25 05:07:43;;;;;;;5.10;4.43;;;;;;;23.78;56.13;99890.19;5010189;28;20029;-65
2022/06/25 05:10:08;;;;;;;7.63;4.60;;;;;;;23.90;55.57;99893.78;5005292;28;20045;-65
2022/06/25 05:15:18;;;;;;;9.15;4.78;;;;;;;24.15;53.81;99897.22;5003674;28;20105;-67
2022/06/25 05:17:44;;;;;;;5.85;4.43;;;;;;;24.34;54.27;99901.97;5003974;28;20176;-67
2022/06/25 05:20:10;;;;;;;7.25;5.28;;;;;;;24.34;53.57;99895.84;5007479;28;20030;-68
2022/06/25 05:22:35;;;;;;;6.63;4.35;;;;;;;24.48;54.38;99898.28;5004790;28;20022;-67
2022/06/25 05:25:01;;;;;;;6.25;4.60;;;;;;;24.73;53.60;99912.34;5004026;28;20032;-65
2022/06/25 05:27:27;;;;;;;6.10;4.75;;;;;;;24.61;53.16;99903.50;5004975;28;20041;-68
2022/06/25 05:29:53;;;;;;;5.47;4.97;;;;;;;24.69;52.20;99895.00;5004212;28;20029;-67
2022/06/25 05:32:19;;;;;;;7.57;4.88;;;;;;;24.91;52.81;99905.63;5012021;28;20498;-68
2022/06/25 05:34:45;;;;;;;9.25;5.85;;;;;;;25.02;53.01;99903.91;5013872;28;20029;-67
2022/06/25 05:37:11;;;;;;;7.25;5.25;;;;;;;25.12;53.53;99907.53;5009339;28;20057;-68
2022/06/25 05:39:36;;;;;;;5.80;5.20;;;;;;;25.23;52.63;99901.38;5004390;28;20029;-67
2022/06/25 05:42:03;;;;;;;7.90;5.80;;;;;;;25.23;53.12;99904.03;4995704;28;20077;-67
2022/06/25 05:44:29;;;;;;;6.15;5.00;;;;;;;25.11;52.75;99916.44;5001526;28;20113;-68
2022/06/25 05:46:54;;;;;;;6.65;5.90;;;;;;;25.29;52.54;99912.31;5005497;28;20543;-68
2022/06/25 05:49:20;;;;;;;8.35;5.20;;;;;;;25.31;52.06;99912.19;5013138;28;20022;-68
2022/06/25 05:51:46;;;;;;;5.85;5.32;;;;;;;25.36;52.69;99911.91;5013510;28;20022;-66
2022/06/25 05:54:11;;;;;;;7.95;5.53;;;;;;;25.31;51.38;99907.78;5007381;28;20030;-67
2022/06/25 05:56:37;;;;;;;5.53;4.93;;;;;;;25.40;51.79;99913.34;5012582;28;20068;-68
2022/06/25 05:59:02;;;;;;;5.25;4.72;;;;;;;25.46;51.60;99908.38;4994816;28;20488;-68
2022/06/25 06:01:28;;;;;;;7.60;6.13;;;;;;;25.37;51.86;99902.94;5004364;28;20022;-68
2022/06/25 06:03:53;;;;;;;7.53;5.90;;;;;;;25.38;52.24;99912.59;5013343;28;20692;-66
2022/06/25 06:06:19;;;;;;;7.75;5.93;;;;;;;25.51;51.12;99910.66;5013401;28;20515;-66
2022/06/25 06:08:44;;;;;;;5.60;5.07;;;;;;;25.48;50.31;99903.78;5012914;28;20033;-66
2022/06/25 06:11:10;;;;;;;6.00;5.40;;;;;;;25.66;51.18;99916.53;5012883;28;20026;-67
2022/06/25 06:13:35;;;;;;;9.38;6.28;;;;;;;25.73;51.10;99922.19;5012846;28;20026;-66
2022/06/25 06:16:01;;;;;;;6.63;6.03;;;;;;;25.69;50.21;99920.75;5011750;28;20041;-67
2022/06/25 06:18:26;;;;;;;7.03;5.57;;;;;;;25.76;49.92;99914.81;5012860;28;20032;-67
2022/06/25 06:20:52;;;;;;;5.63;5.10;;;;;;;25.81;49.09;99909.97;5012747;28;20042;-68
2022/06/25 06:23:17;;;;;;;6.00;5.38;;;;;;;25.83;49.64;99921.28;5013016;28;20025;-68
2022/06/25 06:25:43;;;;;;;6.85;5.50;;;;;;;25.89;49.32;99922.59;5012834;28;20021;-66
2022/06/25 06:28:09;;;;;;;6.80;5.40;;;;;;;25.88;48.08;99920.94;5011311;28;20026;-66
2022/06/25 06:30:34;;;;;;;5.97;5.22;;;;;;;25.90;48.73;99911.03;5012661;28;20033;-67
2022/06/25 06:33:00;;;;;;;6.80;5.80;;;;;;;25.91;49.15;99914.50;5012458;28;20022;-67
2022/06/25 06:35:25;;;;;;;11.10;5.57;;;;;;;25.92;49.05;99916.22;5011900;28;20026;-67
2022/06/25 06:37:51;;;;;;;10.30;5.57;;;;;;;25.90;48.83;99910.19;5012345;28;20036;-66
2022/06/25 06:40:16;;;;;;;5.90;5.20;;;;;;;25.97;47.68;99914.84;5012592;28;20026;-67
2022/06/25 06:42:42;;;;;;;5.88;5.05;;;;;;;26.12;47.61;99903.97;5012201;28;20391;-67
2022/06/25 06:45:08;;;;;;;6.53;4.53;;;;;;;26.07;47.52;99912.31;5012364;28;20034;-66
2022/06/25 06:47:33;;;;;;;7.10;5.15;;;;;;;26.11;47.29;99904.94;5012393;28;20467;-66
2022/06/25 06:49:59;;;;;;;6.28;5.07;;;;;;;26.14;46.60;99905.53;5012139;28;20026;-66
2022/06/25 06:52:26;;;;;;;7.53;4.80;;;;;;;26.21;47.32;99905.88;5012467;28;20521;-68
2022/06/25 06:54:52;;;;;;;10.55;5.97;;;;;;;26.22;47.83;99914.66;5012070;28;20026;-67
2022/06/25 06:57:18;;;;;;;7.60;4.93;;;;;;;26.23;46.96;99914.53;5011000;28;20044;-67
2022/06/25 06:59:43;;;;;;;7.53;5.03;;;;;;;26.20;46.50;99920.09;5011140;28;20030;-67
2022/06/25 07:02:09;;;;;;;23.00;8.75;;;;;;;26.29;47.75;99919.31;5012270;28;20022;-67
2022/06/25 07:04:34;;;;;;;11.73;5.70;;;;;;;26.38;47.08;99923.06;5005087;28;20068;-70
2022/06/25 07:07:00;;;;;;;8.43;4.50;;;;;;;26.46;45.36;99915.25;5009285;28;20061;-67
2022/06/25 07:09:26;;;;;;;8.20;4.53;;;;;;;26.63;45.01;99916.47;5008146;28;20026;-68
2022/06/25 07:11:52;;;;;;;7.57;4.57;;;;;;;26.70;45.92;99915.00;5011092;28;20028;-68
2022/06/25 07:14:17;;;;;;;8.00;4.72;;;;;;;26.79;45.63;99926.66;5010473;28;20387;-67
2022/06/25 07:16:43;;;;;;;5.03;4.53;;;;;;;26.84;45.76;99916.50;5009478;28;20056;-68
2022/06/25 07:19:10;;;;;;;5.75;4.25;;;;;;;26.93;46.05;99924.66;5010420;28;20030;-69
2022/06/25 07:21:36;;;;;;;7.78;5.10;;;;;;;27.04;46.91;99914.75;5007980;28;20475;-67
2022/06/25 07:24:02;;;;;;;7.45;4.80;;;;;;;27.03;44.84;99923.69;5010774;28;20053;-67
2022/06/25 07:26:27;;;;;;;10.30;4.53;;;;;;;27.07;44.95;99921.63;5010434;28;20014;-66
2022/06/25 07:28:54;;;;;;;5.35;3.90;;;;;;;27.00;42.95;99921.31;5010463;28;20053;-66
2022/06/25 07:31:20;;;;;;;11.40;5.07;;;;;;;27.07;46.23;99918.16;5007782;28;20084;-66
2022/06/25 07:33:46;;;;;;;10.10;4.90;;;;;;;27.06;45.31;99908.47;5010698;28;20049;-66
2022/06/25 07:36:11;;;;;;;6.22;4.22;;;;;;;27.13;45.16;99912.28;5011066;28;20385;-67
2022/06/25 07:38:37;;;;;;;6.75;4.78;;;;;;;27.12;46.22;99905.25;5009442;28;20106;-69
2022/06/25 07:41:03;;;;;;;4.95;4.47;;;;;;;27.07;44.79;99918.16;5007202;28;20041;-66
2022/06/25 07:43:28;;;;;;;8.60;5.20;;;;;;;27.11;45.53;99908.94;4987988;28;20096;-66
2022/06/25 07:45:55;;;;;;;6.03;4.32;;;;;;;27.07;44.67;99902.19;5013234;28;20490;-67
2022/06/25 07:48:21;;;;;;;7.28;5.50;;;;;;;27.07;45.42;99903.03;5015474;28;20030;-67
2022/06/25 07:53:31;;;;;;;6.57;4.82;;;;;;;26.92;46.49;99905.22;5008339;28;20037;-67
2022/06/25 07:55:56;;;;;;;8.43;4.03;;;;;;;26.85;43.92;99904.88;5012647;28;20022;-66
2022/06/25 07:58:26;;;;;;;6.10;3.78;;;;;;;27.09;44.67;99905.53;4996278;28;20468;-67
2022/06/25 08:00:52;;;;;;;7.50;5.35;;;;;;;27.19;44.14;99909.06;5013915;28;20442;-67
2022/06/25 08:03:18;;;;;;;4.97;4.20;;;;;;;27.15;44.32;99897.88;4995610;28;20037;-67
2022/06/25 08:05:46;;;;;;;7.15;4.45;;;;;;;27.17;44.39;99897.75;5014922;28;20038;-67
2022/06/25 08:08:12;;;;;;;9.88;4.65;;;;;;;27.07;46.22;99899.53;5011038;28;20046;-68
2022/06/25 08:10:38;;;;;;;6.53;4.93;;;;;;;26.85;45.42;99904.03;5012065;28;20112;-68
2022/06/25 08:13:03;;;;;;;5.60;5.03;;;;;;;26.85;45.47;99910.22;5006790;28;20382;-70
2022/06/25 08:15:29;;;;;;;7.18;4.07;;;;;;;26.87;46.15;99904.75;5005084;28;20018;-67
2022/06/25 08:17:54;;;;;;;6.07;4.40;;;;;;;26.93;46.40;99896.25;5005050;28;20018;-67
2022/06/25 08:20:20;;;;;;;6.38;4.25;;;;;;;27.04;47.18;99896.16;5008522;28;20087;-66
2022/06/25 08:22:46;;;;;;;4.68;4.15;;;;;;;27.16;45.20;99901.38;5006632;28;20076;-66
2022/06/25 08:25:11;;;;;;;4.55;3.90;;;;;;;27.32;45.26;99893.72;5003695;28;20033;-66
2022/06/25 08:27:51;;;;;;;4.88;4.38;;;;;;;27.35;44.64;99890.81;5001946;28;20041;-66
2022/06/25 08:30:18;;;;;;;7.53;4.32;;;;;;;27.30;44.67;99881.53;5006530;28;20018;-66
2022/06/25 08:32:44;;;;;;;7.43;4.68;;;;;;;27.49;45.29;99886.06;5008196;28;20026;-67
2022/06/25 08:35:10;;;;;;;4.78;4.28;;;;;;;27.26;43.10;99890.75;5005466;28;20030;-68
2022/06/25 08:37:37;;;;;;;9.30;4.30;;;;;;;27.40;43.52;99886.91;5004003;28;20022;-69
2022/06/25 08:40:04;;;;;;;7.13;4.13;;;;;;;27.56;42.64;99884.56;5005821;28;20084;-68
2022/06/25 08:42:29;;;;;;;8.25;4.80;;;;;;;27.57;43.86;99853.47;5006867;28;20033;-68
2022/06/25 08:44:55;;;;;;;4.78;4.28;;;;;;;27.80;43.38;99883.31;5005456;28;20037;-67
2022/06/25 08:47:20;;;;;;;5.68;4.25;;;;;;;27.75;42.21;99886.41;5005742;28;20022;-67
2022/06/25 08:49:46;;;;;;;6.47;3.75;;;;;;;27.52;42.33;99877.81;5006652;28;20030;-67
2022/06/25 08:52:13;;;;;;;4.03;3.30;;;;;;;27.70;42.76;99876.16;5014029;28;20041;-67
2022/06/25 08:54:39;;;;;;;7.10;4.43;;;;;;;27.91;43.22;99872.53;5007121;28;20037;-67
2022/06/25 08:57:08;;;;;;;4.32;3.92;;;;;;;27.98;42.71;99875.50;5013376;28;20040;-68
2022/06/25 08:59:34;;;;;;;5.13;4.10;;;;;;;27.97;42.95;99882.63;5014370;28;20044;-67
2022/06/25 09:01:59;;;;;;;6.22;3.70;;;;;;;28.13;42.63;99873.25;5012653;28;20022;-67
2022/06/25 09:04:26;;;;;;;4.43;4.03;;;;;;;27.89;43.46;99862.03;5013634;28;20682;-67
2022/06/25 09:07:09;;;;;;;4.72;3.90;;;;;;;28.15;43.21;99874.81;5003412;28;20046;-67
2022/06/25 09:09:35;;;;;;;8.27;4.20;;;;;;;27.93;42.16;99851.09;4998953;28;20022;-68
2022/06/25 09:12:05;;;;;;;6.93;4.00;;;;;;;28.20;42.46;99858.38;5003400;28;20032;-68
2022/06/25 09:14:32;;;;;;;3.67;3.38;;;;;;;28.23;42.19;99858.94;5004203;28;20022;-68
2022/06/25 09:16:59;;;;;;;4.93;3.65;;;;;;;28.39;41.78;99858.34;5005415;28;20080;-67
2022/06/25 09:19:39;;;;;;;6.75;3.70;;;;;;;28.33;41.83;99847.41;5006030;28;20025;-67
2022/06/25 09:22:10;;;;;;;4.65;3.45;;;;;;;28.39;40.85;99858.34;5004768;28;20109;-67
2022/06/25 09:25:02;;;;;;;4.85;4.30;;;;;;;28.37;41.10;99873.63;5013859;28;20029;-66
2022/06/25 09:27:33;;;;;;;4.88;4.13;;;;;;;28.41;41.57;99864.38;5010823;28;20041;-67
2022/06/25 09:30:06;;;;;;;19.95;5.38;;;;;;;28.43;42.59;99866.88;5012250;28;20473;-67
2022/06/25 09:32:53;;;;;;;7.60;3.30;;;;;;;27.78;40.91;99840.88;4997780;28;20026;-66
2022/06/25 09:35:39;;;;;;;4.78;3.38;;;;;;;28.26;41.48;99876.44;5003849;28;20392;-67
2022/06/25 09:38:06;;;;;;;4.43;3.75;;;;;;;28.24;40.45;99865.94;5011962;28;20064;-67
2022/06/25 09:40:32;;;;;;;4.65;3.72;;;;;;;28.16;40.53;99864.97;5011808;28;20053;-70
2022/06/25 09:42:58;;;;;;;7.03;3.45;;;;;;;28.16;40.81;99878.28;5012361;28;20549;-67
2022/06/25 09:45:24;;;;;;;5.53;3.10;;;;;;;28.01;40.42;99878.72;5011977;28;20033;-67
2022/06/25 09:47:50;;;;;;;6.72;3.22;;;;;;;27.85;40.58;99875.78;5009370;28;20097;-67
2022/06/25 09:50:18;;;;;;;5.45;3.35;;;;;;;28.01;41.70;99833.47;4993165;28;20026;-67
2022/06/25 09:52:59;;;;;;;8.98;3.20;;;;;;;27.90;41.40;99841.56;5004655;28;20053;-68
2022/06/25 09:55:30;;;;;;;4.97;3.53;;;;;;;28.09;40.61;99840.75;5013225;28;20066;-68
2022/06/25 09:57:59;;;;;;;6.90;3.63;;;;;;;28.49;41.04;99874.31;5013335;28;20030;-69
2022/06/25 10:00:25;;;;;;;4.32;3.33;;;;;;;28.37;40.05;99872.78;5012883;28;20488;-70
2022/06/25 10:02:51;;;;;;;3.72;3.40;;;;;;;28.19;40.86;99872.69;5011895;28;20038;-69
2022/06/25 10:05:18;;;;;;;3.53;3.10;;;;;;;28.18;40.56;99865.69;5001930;28;20049;-70
2022/06/25 10:08:00;;;;;;;4.38;3.97;;;;;;;28.35;41.47;99858.78;5002936;28;20061;-66
2022/06/25 10:10:38;;;;;;;3.60;3.25;;;;;;;28.33;40.72;99874.06;4994557;28;20113;-67
2022/06/25 10:13:04;;;;;;;5.30;3.97;;;;;;;28.46;40.40;99860.44;4997846;28;20038;-67
2022/06/25 10:15:30;;;;;;;6.18;3.90;;;;;;;28.46;40.79;99858.63;5006500;28;20450;-67
2022/06/25 10:17:55;;;;;;;5.65;3.15;;;;;;;28.52;40.79;99862.53;5005604;28;20040;-67
2022/06/25 10:20:22;;;;;;;4.30;3.30;;;;;;;28.68;40.47;99862.78;5010661;28;20030;-68
2022/06/25 10:22:50;;;;;;;3.22;2.90;;;;;;;28.43;40.38;99829.56;5010041;28;20029;-68
2022/06/25 10:25:19;;;;;;;4.50;3.50;;;;;;;28.60;40.57;99835.97;5010835;28;20025;-68
2022/06/25 10:27:49;;;;;;;3.58;3.28;;;;;;;28.75;41.79;99858.53;5010646;28;20091;-69
2022/06/25 10:30:35;;;;;;;3.63;3.05;;;;;;;28.75;40.52;99847.88;5009606;28;20105;-67
2022/06/25 10:33:01;;;;;;;3.65;3.22;;;;;;;28.66;40.95;99859.44;4991686;28;20034;-66
2022/06/25 10:35:30;;;;;;;4.15;3.15;;;;;;;28.58;40.96;99827.31;5008832;28;20116;-67
2022/06/25 10:38:02;;;;;;;4.70;3.60;;;;;;;28.54;41.19;99820.56;5012001;28;20052;-68
2022/06/25 10:40:33;;;;;;;6.18;3.33;;;;;;;28.39;40.02;99868.19;5012436;28;20034;-67
2022/06/25 10:43:24;;;;;;;3.17;2.88;;;;;;;27.92;40.20;99823.66;5012564;28;20571;-68
2022/06/25 10:45:49;;;;;;;6.65;3.28;;;;;;;27.87;40.02;99855.16;5012306;28;20044;-67
2022/06/25 10:48:18;;;;;;;5.25;3.20;;;;;;;28.29;40.92;99852.22;5012603;28;20443;-68
2022/06/25 10:50:47;;;;;;;3.50;2.90;;;;;;;28.30;39.68;99856.53;5012152;28;20451;-66
2022/06/25 10:53:13;;;;;;;6.93;3.35;;;;;;;28.08;40.82;99849.72;5012490;28;20018;-66
2022/06/25 10:55:59;;;;;;;3.70;2.90;;;;;;;28.06;40.42;99814.38;5003981;28;20045;-66
2022/06/25 10:58:27;;;;;;;5.43;3.28;;;;;;;27.96;39.09;99802.88;5012262;28;20033;-67
2022/06/25 11:01:03;;;;;;;3.03;2.60;;;;;;;28.15;40.62;99810.03;5007130;28;20037;-66
2022/06/25 11:03:30;;;;;;;4.32;3.03;;;;;;;28.42;39.89;99839.41;5008723;28;20034;-67
2022/06/25 11:05:57;;;;;;;3.40;2.80;;;;;;;28.48;40.01;99853.97;5023205;28;20543;-66
2022/06/25 11:08:44;;;;;;;4.05;3.58;;;;;;;28.57;40.69;99845.13;5007127;28;20045;-66
2022/06/25 11:11:10;;;;;;;4.88;3.17;;;;;;;28.51;40.14;99834.19;5000643;28;20052;-67
2022/06/25 11:13:39;;;;;;;7.35;2.92;;;;;;;28.53;39.90;99826.88;5004844;28;20100;-66
2022/06/25 11:16:15;;;;;;;3.63;3.13;;;;;;;28.52;39.19;99833.22;5003289;28;20475;-66
2022/06/25 11:18:53;;;;;;;4.18;3.10;;;;;;;28.32;39.06;99803.09;5003017;28;20034;-66
2022/06/25 11:21:31;;;;;;;4.28;3.20;;;;;;;28.40;41.75;99798.75;5005761;28;20034;-67
2022/06/25 11:24:25;;;;;;;4.45;3.33;;;;;;;28.62;39.34;99841.19;5005057;28;20023;-66
2022/06/25 11:29:52;;;;;;;4.53;3.47;;;;;;;28.29;40.41;99841.56;5011755;28;20091;-66
2022/06/25 11:32:26;;;;;;;4.00;2.80;;;;;;;28.38;39.35;99835.34;5011335;28;20161;-66
2022/06/25 11:35:00;;;;;;;3.13;2.72;;;;;;;28.42;40.80;99841.25;5015809;28;20053;-67
2022/06/25 11:37:27;;;;;;;4.35;3.25;;;;;;;28.37;39.68;99833.66;5015814;28;20026;-68
2022/06/25 11:39:53;;;;;;;4.65;3.30;;;;;;;28.50;39.93;99843.16;5014180;28;20369;-67
2022/06/25 11:42:19;;;;;;;3.28;3.03;;;;;;;28.60;39.48;99846.63;5015859;28;20049;-67
2022/06/25 11:44:50;;;;;;;5.07;3.17;;;;;;;28.58;41.19;99843.28;5015397;28;20156;-66
2022/06/25 11:47:24;;;;;;;4.00;2.83;;;;;;;28.68;40.87;99849.44;5015446;28;20476;-67
2022/06/25 11:49:50;;;;;;;7.65;3.50;;;;;;;28.69;40.16;99844.94;5004401;28;20030;-67